createdAt,value
2023-11-15T00:01:13.632Z,1199.45
2023-11-15T00:03:40.599Z,1200.55
2023-11-15T00:06:07.917Z,1200.80
2023-11-15T00:08:35.028Z,1198.20
2023-11-15T00:11:02.132Z,1201.32
2023-11-15T00:13:29.649Z,1203.07
2023-11-15T00:15:57.166Z,1202.07
2023-11-15T00:18:24.184Z,1203.18
2023-11-15T00:20:52.698Z,1202.28
2023-11-15T00:23:19.827Z,1202.45
2023-11-15T00:25:46.876Z,1204.97
2023-11-15T00:28:14.351Z,1201.80
2023-11-15T00:30:41.540Z,1207.95
2023-11-15T00:33:09.277Z,1203.50
2023-11-15T00:35:36.443Z,1205.35
2023-11-15T00:38:05.283Z,1205.80
2023-11-15T00:40:32.372Z,1208.90
2023-11-15T00:42:59.384Z,1208.00
2023-11-15T00:45:26.268Z,1205.72
2023-11-15T00:47:53.325Z,1195.55
2023-11-15T00:50:20.307Z,1203.50
2023-11-15T00:52:47.314Z,1216.68
2023-11-15T00:55:14.408Z,1207.45
2023-11-15T00:57:41.575Z,1204.32
2023-11-15T01:00:28.428Z,1205.65
2023-11-15T01:02:57.274Z,1201.72
2023-11-15T01:05:29.795Z,1214.82
2023-11-15T01:07:56.990Z,1196.37
2023-11-15T01:10:25.912Z,1221.75
2023-11-15T01:12:54.537Z,1229.82
2023-11-15T01:15:23.133Z,1203.68
2023-11-15T01:17:50.845Z,1231.83
2023-11-15T01:20:18.325Z,1194.35
2023-11-15T01:22:45.382Z,1194.78
2023-11-15T01:25:13.692Z,1191.83
2023-11-15T01:27:40.799Z,1193.03
2023-11-15T01:30:09.900Z,1194.50
2023-11-15T01:32:37.006Z,1190.07
2023-11-15T01:35:04.693Z,1195.30
2023-11-15T01:37:31.706Z,1196.60
2023-11-15T01:39:59.684Z,1194.57
2023-11-15T01:42:26.480Z,1194.78
2023-11-15T01:44:53.444Z,1190.18
2023-11-15T01:47:20.613Z,1198.43
2023-11-15T01:49:47.685Z,1197.55
2023-11-15T01:52:15.450Z,1196.80
2023-11-15T01:54:43.187Z,1198.47
2023-11-15T01:57:10.378Z,1201.38
2023-11-15T01:59:37.867Z,1195.80
2023-11-15T02:02:04.810Z,1194.80
2023-11-15T02:04:31.870Z,1198.70
2023-11-15T02:06:59.481Z,1199.22
2023-11-15T02:09:26.767Z,1194.22
2023-11-15T02:11:54.340Z,1196.07
2023-11-15T02:14:21.311Z,1199.53
2023-11-15T02:16:49.740Z,1201.45
2023-11-15T02:19:17.122Z,1213.38
2023-11-15T02:21:44.212Z,1197.57
2023-11-15T02:24:11.205Z,1193.65
2023-11-15T02:26:38.061Z,1199.40
2023-11-15T02:29:05.279Z,1198.57
2023-11-15T02:31:33.292Z,1193.97
2023-11-15T02:34:00.102Z,1199.55
2023-11-15T02:36:29.570Z,1199.30
2023-11-15T02:38:56.508Z,1213.90
2023-11-15T02:41:23.978Z,1200.60
2023-11-15T02:43:51.343Z,1206.10
2023-11-15T02:46:24.014Z,1211.78
2023-11-15T02:48:51.629Z,1203.23
2023-11-15T02:51:18.579Z,1202.93
2023-11-15T02:53:45.610Z,1205.50
2023-11-15T02:56:12.714Z,1205.55
2023-11-15T02:58:39.606Z,1185.18
2023-11-15T03:01:07.869Z,1187.97
2023-11-15T03:03:38.578Z,1194.45
2023-11-15T03:06:06.168Z,1189.78
2023-11-15T03:08:33.148Z,1192.55
2023-11-15T03:11:00.445Z,1192.38
2023-11-15T03:13:27.405Z,1192.65
2023-11-15T03:15:54.424Z,1198.43
2023-11-15T03:18:21.518Z,1197.07
2023-11-15T03:20:50.064Z,1200.00
2023-11-15T03:23:17.013Z,1197.07
2023-11-15T03:25:44.259Z,1200.28
2023-11-15T03:28:11.616Z,1198.63
2023-11-15T03:30:38.500Z,1197.68
2023-11-15T03:33:05.484Z,1203.78
2023-11-15T03:35:33.152Z,1198.80
2023-11-15T03:38:00.106Z,1201.90
2023-11-15T03:40:27.293Z,1204.90
2023-11-15T03:42:54.302Z,1203.43
2023-11-15T03:45:22.101Z,1209.27
2023-11-15T03:47:49.041Z,1199.78
2023-11-15T03:50:15.938Z,1203.60
2023-11-15T03:52:43.596Z,1201.28
2023-11-15T03:58:06.996Z,1188.03
2023-11-15T04:00:33.885Z,1191.05
2023-11-15T04:03:00.999Z,1190.23
2023-11-15T04:05:29.344Z,1194.43
2023-11-15T04:07:57.652Z,1195.43
2023-11-15T04:10:25.312Z,1195.20
2023-11-15T04:12:55.015Z,1194.53
2023-11-15T04:15:23.465Z,1191.32
2023-11-15T04:17:50.790Z,1195.13
2023-11-15T04:20:18.697Z,1196.72
2023-11-15T04:22:45.652Z,1202.47
2023-11-15T04:25:12.519Z,1199.43
2023-11-15T04:27:39.320Z,1197.80
2023-11-15T04:30:06.820Z,1199.13
2023-11-15T04:32:33.985Z,1198.70
2023-11-15T04:35:00.826Z,1198.45
2023-11-15T04:37:27.724Z,1200.93
2023-11-15T04:39:54.773Z,1198.07
2023-11-15T04:42:21.565Z,1199.57
2023-11-15T04:44:49.422Z,1168.78
2023-11-15T04:47:16.437Z,1170.18
2023-11-15T04:49:44.004Z,1172.15
2023-11-15T04:52:10.994Z,1172.00
2023-11-15T04:54:37.937Z,1178.22
2023-11-15T04:57:05.008Z,1195.40
2023-11-15T04:59:32.926Z,1183.63
2023-11-15T05:02:00.936Z,1174.68
2023-11-15T05:04:28.189Z,1199.70
2023-11-15T05:06:55.772Z,1203.77
2023-11-15T05:09:25.942Z,1204.50
2023-11-15T05:11:52.853Z,1216.10
2023-11-15T05:14:19.770Z,1215.45
2023-11-15T05:16:46.673Z,1218.65
2023-11-15T05:19:13.525Z,1213.03
2023-11-15T05:21:40.362Z,1215.47
2023-11-15T05:24:07.540Z,1215.70
2023-11-15T05:26:34.434Z,1211.85
2023-11-15T05:29:01.329Z,1211.85
2023-11-15T05:31:28.249Z,1214.07
2023-11-15T05:33:56.199Z,1213.00
2023-11-15T05:36:23.279Z,1215.82
2023-11-15T05:38:50.279Z,1219.25
2023-11-15T05:41:17.197Z,1216.22
2023-11-15T05:43:44.036Z,1219.03
2023-11-15T05:46:11.071Z,1218.28
2023-11-15T05:48:38.125Z,1218.35
2023-11-15T05:51:07.889Z,1217.22
2023-11-15T05:53:34.729Z,1223.15
2023-11-15T05:56:01.574Z,1218.80
2023-11-15T05:58:28.958Z,1220.28
2023-11-15T06:00:55.937Z,1220.97
2023-11-15T06:03:23.588Z,1219.53
2023-11-15T06:05:51.234Z,1219.00
2023-11-15T06:08:18.433Z,1219.53
2023-11-15T06:10:45.345Z,1219.22
2023-11-15T06:13:16.678Z,1218.68
2023-11-15T06:15:44.730Z,1219.50
2023-11-15T06:18:12.135Z,1222.63
2023-11-15T06:20:42.303Z,1223.63
2023-11-15T06:23:10.001Z,1223.70
2023-11-15T06:25:36.801Z,1218.63
2023-11-15T06:28:04.386Z,1216.60
2023-11-15T06:30:31.357Z,1222.25
2023-11-15T06:32:58.298Z,1216.30
2023-11-15T06:35:25.150Z,1224.82
2023-11-15T06:37:52.042Z,1220.78
2023-11-15T06:40:19.749Z,1224.03
2023-11-15T06:42:47.036Z,1223.10
2023-11-15T06:45:14.003Z,1223.43
2023-11-15T06:47:44.459Z,1223.30
2023-11-15T06:50:11.621Z,1224.93
2023-11-15T06:52:41.404Z,1225.57
2023-11-15T06:55:12.618Z,1224.50
2023-11-15T06:57:42.247Z,1221.93
2023-11-15T07:00:10.676Z,1217.72
2023-11-15T07:02:38.323Z,1222.63
2023-11-15T07:05:07.078Z,1219.18
2023-11-15T07:07:34.620Z,1227.70
2023-11-15T07:10:06.612Z,1223.95
2023-11-15T07:12:37.383Z,1222.57
2023-11-15T07:15:15.991Z,1225.95
2023-11-15T07:17:43.153Z,1222.33
2023-11-15T07:20:11.242Z,1219.10
2023-11-15T07:22:38.304Z,1224.88
2023-11-15T07:25:08.096Z,1226.30
2023-11-15T07:27:35.711Z,1222.53
2023-11-15T07:30:02.827Z,1224.13
2023-11-15T07:32:29.867Z,1218.65
2023-11-15T07:34:56.939Z,1217.70
2023-11-15T07:37:24.048Z,1214.28
2023-11-15T07:39:51.410Z,1200.68
2023-11-15T07:42:18.424Z,1174.80
2023-11-15T07:44:46.719Z,1168.20
2023-11-15T07:47:15.087Z,1161.95
2023-11-15T07:49:41.872Z,1196.95
2023-11-15T07:52:08.725Z,1174.60
2023-11-15T07:54:35.578Z,1145.45
2023-11-15T07:57:02.586Z,1168.80
2023-11-15T07:59:29.471Z,1162.15
2023-11-15T08:01:56.427Z,1168.87
2023-11-15T08:04:23.427Z,1164.68
2023-11-15T08:06:50.541Z,1178.65
2023-11-15T08:09:27.719Z,1168.80
2023-11-15T08:11:56.379Z,1176.68
2023-11-15T08:14:23.480Z,1165.05
2023-11-15T08:16:50.634Z,1168.25
2023-11-15T08:19:19.396Z,1171.18
2023-11-15T08:21:46.306Z,1173.10
2023-11-15T08:24:21.862Z,1165.28
2023-11-15T08:26:54.092Z,1169.00
2023-11-15T08:29:22.324Z,1169.47
2023-11-15T08:31:50.190Z,1176.13
2023-11-15T08:34:21.104Z,1164.20
2023-11-15T08:36:50.288Z,1173.90
2023-11-15T08:39:18.135Z,1176.10
2023-11-15T08:41:47.765Z,1182.30
2023-11-15T08:44:15.799Z,1170.88
2023-11-15T08:46:46.777Z,1170.05
2023-11-15T08:49:14.667Z,1174.30
2023-11-15T08:51:51.609Z,1176.28
2023-11-15T08:54:18.557Z,1177.55
2023-11-15T08:56:46.544Z,1187.13
2023-11-15T08:59:15.904Z,1180.68
2023-11-15T09:01:45.576Z,1183.15
2023-11-15T09:04:14.209Z,1181.07
2023-11-15T09:06:45.285Z,1182.00
2023-11-15T09:09:15.484Z,1187.47
2023-11-15T09:11:45.830Z,1198.03
2023-11-15T09:14:15.144Z,1198.80
2023-11-15T09:16:43.682Z,1178.18
2023-11-15T09:19:16.975Z,1179.93
2023-11-15T09:21:47.346Z,1180.05
2023-11-15T09:24:19.818Z,1167.53
2023-11-15T09:26:47.034Z,1172.73
2023-11-15T09:29:14.072Z,1173.88
2023-11-15T09:31:44.893Z,1170.25
2023-11-15T09:34:14.678Z,1172.07
2023-11-15T09:36:43.776Z,1174.47
2023-11-15T09:39:11.572Z,1185.53
2023-11-15T09:41:38.937Z,1193.68
2023-11-15T09:44:10.724Z,1202.20
2023-11-15T09:46:38.790Z,1209.27
2023-11-15T09:49:09.076Z,1213.68
2023-11-15T09:51:39.155Z,1210.82
2023-11-15T09:54:16.004Z,1216.50
2023-11-15T09:56:46.752Z,1211.32
2023-11-15T09:59:14.968Z,1216.28
2023-11-15T10:01:46.951Z,1211.23
2023-11-15T10:04:27.284Z,1213.15
2023-11-15T10:07:03.453Z,1205.97
2023-11-15T10:09:41.495Z,1210.93
2023-11-15T10:12:10.023Z,1179.35
2023-11-15T10:14:52.986Z,1213.82
2023-11-15T10:17:21.908Z,1213.65
2023-11-15T10:19:49.643Z,1211.47
2023-11-15T10:22:18.924Z,1211.03
2023-11-15T10:25:06.920Z,1207.07
2023-11-15T10:27:38.756Z,1213.88
2023-11-15T10:30:23.551Z,1213.63
2023-11-15T10:32:52.872Z,1210.03
2023-11-15T10:35:30.444Z,1205.93
2023-11-15T10:37:57.861Z,1207.40
2023-11-15T10:40:31.223Z,1207.22
2023-11-15T10:43:04.104Z,1208.57
2023-11-15T10:45:32.366Z,1209.40
2023-11-15T10:48:05.625Z,1208.00
2023-11-15T10:50:38.789Z,1209.95
2023-11-15T10:53:11.569Z,1210.50
2023-11-15T10:55:41.983Z,1212.72
2023-11-15T10:58:16.664Z,1208.35
2023-11-15T11:00:47.004Z,1208.55
2023-11-15T11:03:14.607Z,1200.72
2023-11-15T11:06:04.450Z,1204.15
2023-11-15T11:08:45.696Z,1204.30
2023-11-15T11:11:15.679Z,1205.97
2023-11-15T11:13:42.929Z,1204.72
2023-11-15T11:16:35.028Z,1200.90
2023-11-15T11:19:30.066Z,1199.15
2023-11-15T11:22:17.400Z,1197.78
2023-11-15T11:25:08.105Z,1203.65
2023-11-15T11:27:44.822Z,1202.00
2023-11-15T11:30:17.225Z,1203.70
2023-11-15T11:32:48.423Z,1210.25
2023-11-15T11:35:32.305Z,1200.47
2023-11-15T11:38:02.024Z,1201.13
2023-11-15T11:40:33.400Z,1200.70
2023-11-15T11:43:13.556Z,1199.90
2023-11-15T11:45:42.307Z,1201.55
2023-11-15T11:48:20.322Z,1198.57
2023-11-15T11:51:06.598Z,1206.50
2023-11-15T11:53:41.537Z,1202.07
2023-11-15T11:56:10.587Z,1202.32
2023-11-15T11:58:40.627Z,1204.93
2023-11-15T12:01:09.299Z,1203.90
2023-11-15T12:03:45.623Z,1204.82
2023-11-15T12:06:13.736Z,1207.85
2023-11-15T12:08:52.928Z,1209.53
2023-11-15T12:11:24.597Z,1207.78
2023-11-15T12:13:55.096Z,1200.60
2023-11-15T12:16:26.903Z,1202.82
2023-11-15T12:19:27.961Z,1205.25
2023-11-15T12:21:55.789Z,1201.47
2023-11-15T12:24:26.080Z,1203.45
2023-11-15T12:26:53.825Z,1200.88
2023-11-15T12:29:25.774Z,1204.93
2023-11-15T12:31:57.772Z,1202.40
2023-11-15T12:34:27.137Z,1199.20
2023-11-15T12:36:55.279Z,1201.13
2023-11-15T12:39:27.546Z,1204.75
2023-11-15T12:42:02.784Z,1201.25
2023-11-15T12:44:46.145Z,1199.88
2023-11-15T12:47:17.599Z,1201.60
2023-11-15T12:49:44.873Z,1207.72
2023-11-15T12:52:11.972Z,1203.55
2023-11-15T12:54:56.679Z,1203.68
2023-11-15T12:57:24.740Z,1200.68
2023-11-15T12:59:53.335Z,1201.93
2023-11-15T13:02:26.273Z,1201.45
2023-11-15T13:04:55.089Z,1205.50
2023-11-15T13:07:22.798Z,1205.67
2023-11-15T13:09:50.110Z,1203.70
2023-11-15T13:12:27.476Z,1203.32
2023-11-15T13:14:55.661Z,1206.65
2023-11-15T13:17:22.607Z,1205.75
2023-11-15T13:19:50.075Z,1205.38
2023-11-15T13:22:17.031Z,1209.30
2023-11-15T13:24:49.349Z,1205.07
2023-11-15T13:27:18.651Z,1204.75
2023-11-15T13:29:45.749Z,1207.88
2023-11-15T13:32:12.655Z,1203.68
2023-11-15T13:34:39.590Z,1205.25
2023-11-15T13:37:09.715Z,1205.28
2023-11-15T13:39:37.333Z,1203.63
2023-11-15T13:42:04.359Z,1202.82
2023-11-15T13:44:31.301Z,1206.75
2023-11-15T13:46:58.219Z,1203.68
2023-11-15T13:49:26.496Z,1202.10
2023-11-15T13:51:53.274Z,1205.07
2023-11-15T13:54:22.064Z,1203.72
2023-11-15T13:56:49.050Z,1238.57
2023-11-15T13:59:17.298Z,1200.10
2023-11-15T14:01:44.183Z,1202.50
2023-11-15T14:04:11.184Z,1208.15
2023-11-15T14:06:38.840Z,1204.53
2023-11-15T14:09:06.810Z,1205.35
2023-11-15T14:11:36.899Z,1205.43
2023-11-15T14:14:05.333Z,1204.82
2023-11-15T14:16:33.995Z,1208.05
2023-11-15T14:19:03.577Z,1206.55
2023-11-15T14:21:31.322Z,1205.07
2023-11-15T14:23:58.410Z,1207.17
2023-11-15T14:26:26.553Z,1206.65
2023-11-15T14:28:53.640Z,1203.20
2023-11-15T14:31:20.541Z,1205.65
2023-11-15T14:33:47.567Z,1205.90
2023-11-15T14:36:17.308Z,1205.57
2023-11-15T14:38:46.661Z,1203.18
2023-11-15T14:41:16.430Z,1205.70
2023-11-15T14:43:46.455Z,1205.30
2023-11-15T14:46:15.531Z,1208.75
2023-11-15T14:48:42.458Z,1206.57
2023-11-15T14:51:09.513Z,1208.78
2023-11-15T14:53:53.088Z,1207.47
2023-11-15T14:56:21.072Z,1208.15
2023-11-15T14:58:49.774Z,1206.43
2023-11-15T15:01:19.166Z,1204.10
2023-11-15T15:03:49.474Z,1205.93
2023-11-15T15:06:16.807Z,1208.13
2023-11-15T15:08:45.660Z,1208.20
2023-11-15T15:11:13.104Z,1209.60
2023-11-15T15:13:40.029Z,1207.28
2023-11-15T15:16:07.323Z,1207.70
2023-11-15T15:18:35.280Z,1206.28
2023-11-15T15:21:02.664Z,1206.50
2023-11-15T15:23:30.301Z,1205.93
2023-11-15T15:25:58.573Z,1205.88
2023-11-15T15:28:25.671Z,1207.28
2023-11-15T15:30:54.530Z,1204.90
2023-11-15T15:33:21.934Z,1203.57
2023-11-15T15:35:49.731Z,1202.18
2023-11-15T15:38:16.636Z,1202.78
2023-11-15T15:40:44.526Z,1206.65
2023-11-15T15:43:11.594Z,1203.53
2023-11-15T15:45:38.969Z,1206.53
2023-11-15T15:48:06.637Z,1203.43
2023-11-15T15:50:34.139Z,1202.35
2023-11-15T15:53:01.466Z,1204.60
2023-11-15T15:55:28.413Z,1204.22
2023-11-15T15:57:55.289Z,1205.05
2023-11-15T16:00:23.861Z,1205.95
2023-11-15T16:02:51.473Z,1205.75
2023-11-15T16:05:19.216Z,1205.47
2023-11-15T16:07:46.336Z,1203.30
2023-11-15T16:10:14.079Z,1207.72
2023-11-15T16:12:41.151Z,1207.72
2023-11-15T16:15:14.382Z,1207.43
2023-11-15T16:17:41.491Z,1208.47
2023-11-15T16:20:09.454Z,1207.47
2023-11-15T16:22:37.063Z,1207.13
2023-11-15T16:25:05.276Z,1205.90
2023-11-15T16:27:36.954Z,1206.72
2023-11-15T16:30:10.625Z,1204.28
2023-11-15T16:32:37.731Z,1203.00
2023-11-15T16:35:06.540Z,1204.18
2023-11-15T16:37:36.787Z,1207.25
2023-11-15T16:40:06.575Z,1206.25
2023-11-15T16:42:34.033Z,1205.57
2023-11-15T16:45:02.146Z,1204.47
2023-11-15T16:47:29.489Z,1203.10
2023-11-15T16:49:58.793Z,1208.65
2023-11-15T16:52:25.776Z,1204.40
2023-11-15T16:54:53.244Z,1202.07
2023-11-15T16:57:20.237Z,1207.40
2023-11-15T16:59:47.847Z,1203.80
2023-11-15T17:02:14.789Z,1208.53
2023-11-15T17:04:41.710Z,1204.43
2023-11-15T17:07:08.617Z,1206.18
2023-11-15T17:09:38.597Z,1204.63
2023-11-15T17:12:06.265Z,1201.60
2023-11-15T17:14:34.345Z,1202.30
2023-11-15T17:17:01.653Z,1202.28
2023-11-15T17:19:28.884Z,1206.13
2023-11-15T17:21:58.090Z,1200.78
2023-11-15T17:24:26.275Z,1206.45
2023-11-15T17:26:53.957Z,1218.18
2023-11-15T17:29:21.478Z,1212.88
2023-11-15T17:31:48.671Z,1211.37
2023-11-15T17:34:18.779Z,1210.07
2023-11-15T17:36:54.082Z,1211.63
2023-11-15T17:39:22.860Z,1210.20
2023-11-15T17:41:49.975Z,1210.13
2023-11-15T17:44:21.416Z,1212.30
2023-11-15T17:46:50.635Z,1209.40
2023-11-15T17:49:17.588Z,1206.40
2023-11-15T17:51:46.208Z,1210.72
2023-11-15T17:54:16.007Z,1210.40
2023-11-15T17:56:43.693Z,1208.47
2023-11-15T17:59:12.614Z,1212.10
2023-11-15T18:01:43.264Z,1209.95
2023-11-15T18:04:38.150Z,1211.68
2023-11-15T18:07:49.110Z,1206.85
2023-11-15T18:10:40.872Z,1210.57
2023-11-15T18:13:12.805Z,1210.40
2023-11-15T18:15:40.045Z,1207.28
2023-11-15T18:18:14.994Z,1208.88
2023-11-15T18:20:47.222Z,1209.13
2023-11-15T18:23:26.144Z,1205.13
2023-11-15T18:25:57.984Z,1205.53
2023-11-15T18:28:39.803Z,1208.97
2023-11-15T18:31:14.010Z,1205.97
2023-11-15T18:34:22.697Z,1205.25
2023-11-15T18:40:33.259Z,1205.57
2023-11-15T18:43:07.285Z,1208.15
2023-11-15T18:45:35.620Z,1208.00
2023-11-15T18:48:06.469Z,1209.78
2023-11-15T18:50:56.217Z,1209.28
2023-11-15T18:53:26.093Z,1206.82
2023-11-15T18:55:52.954Z,1206.68
2023-11-15T18:58:19.959Z,1208.95
2023-11-15T19:00:46.969Z,1205.65
2023-11-15T19:03:14.038Z,1207.88
2023-11-15T19:05:43.392Z,1209.18
2023-11-15T19:08:14.049Z,1206.10
2023-11-15T19:10:41.239Z,1205.45
2023-11-15T19:13:08.334Z,1206.63
2023-11-15T19:15:36.244Z,1209.78
2023-11-15T19:18:04.930Z,1206.47
2023-11-15T19:20:32.179Z,1207.22
2023-11-15T19:22:59.136Z,1206.75
2023-11-15T19:25:41.595Z,1210.18
2023-11-15T19:28:11.229Z,1207.90
2023-11-15T19:30:50.234Z,1209.78
2023-11-15T19:33:18.301Z,1207.77
2023-11-15T19:36:06.984Z,1205.60
2023-11-15T19:38:34.500Z,1205.28
2023-11-15T19:41:01.537Z,1207.38
2023-11-15T19:43:28.475Z,1210.10
2023-11-15T19:46:00.007Z,1199.28
2023-11-15T19:48:30.054Z,1200.37
2023-11-15T19:50:57.132Z,1201.40
2023-11-15T19:53:24.199Z,1199.75
2023-11-15T19:55:51.152Z,1201.15
2023-11-15T19:58:18.246Z,1202.65
2023-11-15T20:00:45.588Z,1202.78
2023-11-15T20:03:13.698Z,1203.63
2023-11-15T20:05:41.146Z,1203.03
2023-11-15T20:08:08.249Z,1203.93
2023-11-15T20:10:37.181Z,1205.25
2023-11-15T20:13:06.466Z,1204.23
2023-11-15T20:15:33.343Z,1203.43
2023-11-15T20:18:00.311Z,1203.13
2023-11-15T20:20:27.491Z,1204.90
2023-11-15T20:22:55.789Z,1200.90
2023-11-15T20:25:23.519Z,1200.27
2023-11-15T20:27:50.421Z,1202.68
2023-11-15T20:30:19.460Z,1201.47
2023-11-15T20:32:47.987Z,1205.30
2023-11-15T20:35:16.589Z,1202.15
2023-11-15T20:37:43.626Z,1201.95
2023-11-15T20:40:15.721Z,1203.25
2023-11-15T20:42:47.129Z,1206.05
2023-11-15T20:45:14.625Z,1204.95
2023-11-15T20:47:41.673Z,1202.93
2023-11-15T20:50:09.456Z,1207.22
2023-11-15T20:52:37.404Z,1204.00
2023-11-15T20:55:04.486Z,1203.53
2023-11-15T20:57:31.487Z,1203.32
2023-11-15T20:59:59.903Z,1205.53
2023-11-15T21:02:27.303Z,1204.10
2023-11-15T21:04:56.608Z,1206.35
2023-11-15T21:07:24.403Z,1207.65
2023-11-15T21:09:53.927Z,1205.95
2023-11-15T21:12:22.004Z,1206.25
2023-11-15T21:14:48.942Z,1207.03
2023-11-15T21:17:16.020Z,1203.95
2023-11-15T21:19:42.815Z,1204.78
2023-11-15T21:22:10.436Z,1202.38
2023-11-15T21:24:37.964Z,1203.78
2023-11-15T21:27:05.414Z,1199.53
2023-11-15T21:29:33.207Z,1203.27
2023-11-15T21:32:01.139Z,1198.45
2023-11-15T21:34:28.292Z,1205.13
2023-11-15T21:37:03.193Z,1198.90
2023-11-15T21:39:36.766Z,1203.15
2023-11-15T21:42:03.951Z,1199.53
2023-11-15T21:44:30.731Z,1201.15
2023-11-15T21:46:59.031Z,1201.97
2023-11-15T21:49:26.083Z,1202.90
2023-11-15T21:51:52.889Z,1202.80
2023-11-15T21:54:19.777Z,1198.88
2023-11-15T21:56:47.166Z,1199.40
2023-11-15T21:59:13.983Z,1204.72
2023-11-15T22:01:40.819Z,1202.00
2023-11-15T22:04:08.232Z,1200.38
2023-11-15T22:06:35.165Z,1200.57
2023-11-15T22:09:05.716Z,1201.55
2023-11-15T22:11:32.571Z,1203.35
2023-11-15T22:13:59.419Z,1200.40
2023-11-15T22:16:26.283Z,1201.38
2023-11-15T22:18:53.246Z,1199.32
2023-11-15T22:21:20.175Z,1199.80
2023-11-15T22:23:46.998Z,1200.25
2023-11-15T22:26:13.849Z,1197.68
2023-11-15T22:28:40.681Z,1199.88
2023-11-15T22:31:07.743Z,1199.80
2023-11-15T22:33:34.600Z,1200.18
2023-11-15T22:36:05.112Z,1199.27
2023-11-15T22:38:32.068Z,1198.20
2023-11-15T22:40:58.921Z,1199.22
2023-11-15T22:43:25.770Z,1207.28
2023-11-15T22:45:52.768Z,1202.25
2023-11-15T22:48:20.736Z,1198.25
2023-11-15T22:50:50.819Z,1201.05
2023-11-15T22:53:19.744Z,1203.43
2023-11-15T22:55:46.910Z,1200.95
2023-11-15T22:58:13.830Z,1204.93
2023-11-15T23:00:40.960Z,1204.20
2023-11-15T23:03:10.494Z,1200.65
2023-11-15T23:05:40.076Z,1205.07
2023-11-15T23:08:07.834Z,1201.20
2023-11-15T23:10:40.999Z,1206.25
2023-11-15T23:13:07.948Z,1202.47
2023-11-15T23:15:34.877Z,1207.32
2023-11-15T23:18:02.325Z,1199.22
2023-11-15T23:20:30.780Z,1201.18
2023-11-15T23:22:57.777Z,1203.03
2023-11-15T23:25:26.986Z,1200.93
2023-11-15T23:27:56.695Z,1202.50
2023-11-15T23:30:25.031Z,1198.63
2023-11-15T23:32:53.265Z,1200.18
2023-11-15T23:35:21.044Z,1199.10
2023-11-15T23:37:49.151Z,1200.32
2023-11-15T23:40:16.476Z,1207.80
2023-11-15T23:42:47.403Z,1201.05
2023-11-15T23:45:14.853Z,1203.47
2023-11-15T23:47:41.914Z,1203.60
2023-11-15T23:50:09.692Z,1204.93
2023-11-15T23:52:36.808Z,1200.60
2023-11-15T23:55:05.009Z,1203.53
2023-11-15T23:57:33.006Z,1201.63
